createdAt,value
2019-01-24T05:48:48.268Z,1004.12
2019-01-24T05:49:48.251Z,1004.10
2019-01-24T05:50:48.234Z,1004.10
2019-01-24T05:51:48.238Z,1004.12
2019-01-24T05:52:48.214Z,1004.13
2019-01-24T05:53:48.204Z,1004.13
2019-01-24T05:54:48.193Z,1004.15
2019-01-24T05:55:48.183Z,1004.15
2019-01-24T05:56:48.186Z,1004.10
2019-01-24T05:57:48.171Z,1004.11
2019-01-24T05:58:48.151Z,1004.11
2019-01-24T05:59:48.146Z,1004.17
2019-01-24T06:00:48.146Z,1004.11
2019-01-24T06:01:48.171Z,1004.19
2019-01-24T06:02:48.108Z,1004.12
2019-01-24T06:03:48.110Z,1004.13
2019-01-24T06:04:48.090Z,1004.12
2019-01-24T06:05:55.112Z,1004.07
2019-01-24T06:06:48.066Z,1004.12
2019-01-24T06:07:48.080Z,1004.14
2019-01-24T06:08:48.050Z,1004.10
2019-01-24T06:09:48.035Z,1004.10
2019-01-24T06:10:48.038Z,1004.12
2019-01-24T06:11:48.018Z,1004.15
2019-01-24T06:12:48.027Z,1004.15
2019-01-24T06:13:48.000Z,1004.11
2019-01-24T06:14:47.996Z,1004.17
2019-01-24T06:15:47.985Z,1004.16
2019-01-24T06:16:47.961Z,1004.09
2019-01-24T06:17:47.974Z,1004.03
2019-01-24T06:18:47.999Z,1004.07
2019-01-24T06:19:47.932Z,1004.08
2019-01-24T06:20:47.925Z,1004.11
2019-01-24T06:21:47.918Z,1004.10
2019-01-24T06:22:47.919Z,1004.15
2019-01-24T06:23:47.890Z,1004.19
2019-01-24T06:24:47.880Z,1004.20
2019-01-24T06:25:47.880Z,1004.20
2019-01-24T06:26:47.860Z,1004.24
2019-01-24T06:27:47.871Z,1004.18
2019-01-24T06:28:47.849Z,1004.19
2019-01-24T06:29:47.831Z,1004.22
2019-01-24T06:30:47.815Z,1004.25
2019-01-24T06:31:47.808Z,1004.21
2019-01-24T06:32:47.826Z,1004.28
2019-01-24T06:33:47.786Z,1004.26
2019-01-24T06:34:47.782Z,1004.29
2019-01-24T06:35:48.894Z,1004.29
2019-01-24T06:36:47.756Z,1004.31
2019-01-24T06:37:47.778Z,1004.30
2019-01-24T06:38:47.743Z,1004.31
2019-01-24T06:39:47.723Z,1004.29
2019-01-24T06:40:47.714Z,1004.31
2019-01-24T06:41:47.706Z,1004.31
2019-01-24T06:42:47.708Z,1004.33
2019-01-24T06:43:47.688Z,1004.34
2019-01-24T06:44:47.674Z,1004.38
2019-01-24T06:45:47.671Z,1004.37
2019-01-24T06:46:47.655Z,1004.39
2019-01-24T06:47:47.684Z,1004.39
2019-01-24T06:48:47.629Z,1004.43
2019-01-24T06:49:47.626Z,1004.45
2019-01-24T06:50:47.609Z,1004.42
2019-01-24T06:51:47.612Z,1004.45
2019-01-24T06:52:47.609Z,1004.47
2019-01-24T06:53:47.578Z,1004.48
2019-01-24T06:54:47.571Z,1004.54
2019-01-24T06:55:47.559Z,1004.54
2019-01-24T06:56:47.547Z,1004.58
2019-01-24T06:57:47.554Z,1004.59
2019-01-24T06:58:47.528Z,1004.60
2019-01-24T06:59:47.517Z,1004.56
2019-01-24T07:00:47.511Z,1004.58
2019-01-24T07:01:47.494Z,1004.61
2019-01-24T07:02:47.515Z,1004.58
2019-01-24T07:03:47.478Z,1004.62
2019-01-24T07:04:47.461Z,1004.63
2019-01-24T07:05:47.453Z,1004.65
2019-01-24T07:06:47.442Z,1004.69
2019-01-24T07:07:47.452Z,1004.71
2019-01-24T07:08:47.431Z,1004.72
2019-01-24T07:09:47.419Z,1004.75
2019-01-24T07:10:47.403Z,1004.74
2019-01-24T07:11:47.394Z,1004.74
2019-01-24T07:12:47.402Z,1004.73
2019-01-24T07:13:47.372Z,1004.74
2019-01-24T07:14:47.360Z,1004.71
2019-01-24T07:15:47.357Z,1004.75
2019-01-24T07:16:47.337Z,1004.75
2019-01-24T07:17:47.343Z,1004.80
2019-01-24T07:18:47.324Z,1004.81
2019-01-24T07:19:47.306Z,1004.79
2019-01-24T07:20:47.299Z,1004.86
2019-01-24T07:21:47.328Z,1004.87
2019-01-24T07:22:47.294Z,1004.90
2019-01-24T07:23:47.269Z,1004.93
2019-01-24T07:24:47.252Z,1004.92
2019-01-24T07:25:47.243Z,1004.96
2019-01-24T07:26:47.246Z,1004.96
2019-01-24T07:27:47.254Z,1004.98
2019-01-24T07:28:47.212Z,1005.03
2019-01-24T07:29:47.203Z,1004.99
2019-01-24T07:30:47.197Z,1004.99
2019-01-24T07:31:47.180Z,1005.06
2019-01-24T07:32:47.189Z,1005.05
2019-01-24T07:33:47.162Z,1005.04
2019-01-24T07:34:47.148Z,1005.05
2019-01-24T07:35:47.138Z,1005.04
2019-01-24T07:36:47.131Z,1005.10
2019-01-24T07:37:47.148Z,1005.10
2019-01-24T07:38:47.120Z,1005.12
2019-01-24T07:39:47.095Z,1005.13
2019-01-24T07:40:47.086Z,1005.13
2019-01-24T07:41:47.072Z,1005.14
2019-01-24T07:42:47.087Z,1005.13
2019-01-24T07:43:47.062Z,1005.17
2019-01-24T07:44:47.046Z,1005.15
2019-01-24T07:45:47.030Z,1005.15
2019-01-24T07:46:47.021Z,1005.23
2019-01-24T07:47:47.038Z,1005.27
2019-01-24T07:48:47.001Z,1005.29
2019-01-24T07:49:46.988Z,1005.31
2019-01-24T07:50:46.990Z,1005.34
2019-01-24T07:51:47.008Z,1005.36
2019-01-24T07:52:46.982Z,1005.39
2019-01-24T07:53:46.950Z,1005.38
2019-01-24T07:54:47.000Z,1005.36
2019-01-24T07:55:46.926Z,1005.37
2019-01-24T07:56:46.929Z,1005.38
2019-01-24T07:57:46.941Z,1005.40
2019-01-24T07:58:46.894Z,1005.40
2019-01-24T07:59:46.884Z,1005.34
2019-01-24T08:00:46.884Z,1005.38
2019-01-24T08:01:46.863Z,1005.40
2019-01-24T08:02:46.909Z,1005.36
2019-01-24T08:03:46.843Z,1005.39
2019-01-24T08:04:46.845Z,1005.40
2019-01-24T08:05:46.824Z,1005.41
2019-01-24T08:06:46.818Z,1005.45
2019-01-24T08:07:46.800Z,1005.42
2019-01-24T08:08:46.809Z,1005.41
2019-01-24T08:09:46.783Z,1005.46
2019-01-24T08:10:46.777Z,1005.48
2019-01-24T08:11:46.758Z,1005.46
2019-01-24T08:12:46.747Z,1005.51
2019-01-24T08:13:46.765Z,1005.49
2019-01-24T08:14:46.727Z,1005.53
2019-01-24T08:15:46.717Z,1005.52
2019-01-24T08:16:46.749Z,1005.51
2019-01-24T08:17:46.695Z,1005.54
2019-01-24T08:18:46.706Z,1005.56
2019-01-24T08:19:46.677Z,1005.60
2019-01-24T08:20:46.664Z,1005.62
2019-01-24T08:21:46.655Z,1005.64
2019-01-24T08:22:46.648Z,1005.62
2019-01-24T08:23:46.662Z,1005.67
2019-01-24T08:24:46.623Z,1005.71
2019-01-24T08:25:46.614Z,1005.73
2019-01-24T08:26:46.603Z,1005.67
2019-01-24T08:27:46.590Z,1005.72
2019-01-24T08:28:46.602Z,1005.65
2019-01-24T08:29:46.573Z,1005.67
2019-01-24T08:30:46.560Z,1005.71
2019-01-24T08:31:46.549Z,1005.74
2019-01-24T08:32:46.539Z,1005.78
2019-01-24T08:33:46.549Z,1005.77
2019-01-24T08:34:46.533Z,1005.79
2019-01-24T08:35:46.509Z,1005.80
2019-01-24T08:36:46.501Z,1005.81
2019-01-24T08:37:46.488Z,1005.83
2019-01-24T08:38:46.498Z,1005.80
2019-01-24T08:39:46.467Z,1005.87
2019-01-24T08:40:46.459Z,1005.88
2019-01-24T08:41:46.455Z,1005.91
2019-01-24T08:42:46.436Z,1005.92
2019-01-24T08:43:46.442Z,1005.93
2019-01-24T08:44:46.431Z,1005.94
2019-01-24T08:45:46.404Z,1005.95
2019-01-24T08:46:46.400Z,1005.97
2019-01-24T08:47:46.395Z,1006.02
2019-01-24T08:48:46.389Z,1006.02
2019-01-24T08:49:46.384Z,1005.97
2019-01-24T08:50:46.358Z,1005.96
2019-01-24T08:51:46.346Z,1005.99
2019-01-24T08:52:46.331Z,1005.98
2019-01-24T08:53:46.332Z,1005.98
2019-01-24T08:54:46.308Z,1005.99
2019-01-24T08:55:46.312Z,1006.01
2019-01-24T08:56:46.288Z,1005.99
2019-01-24T08:57:46.279Z,1005.96
2019-01-24T08:58:46.289Z,1005.99
2019-01-24T08:59:46.267Z,1006.01
2019-01-24T09:00:46.248Z,1005.98
2019-01-24T09:01:46.235Z,1005.97
2019-01-24T09:02:46.232Z,1005.98
2019-01-24T09:03:46.244Z,1006.01
2019-01-24T09:04:46.205Z,1005.98
2019-01-24T09:05:46.197Z,1005.95
2019-01-24T09:06:46.182Z,1005.96
2019-01-24T09:07:46.173Z,1005.98
2019-01-24T09:08:46.185Z,1006.00
2019-01-24T09:09:46.152Z,1005.97
2019-01-24T09:10:46.141Z,1005.94
2019-01-24T09:11:46.146Z,1005.93
2019-01-24T09:12:46.119Z,1005.93
2019-01-24T09:13:46.128Z,1005.89
2019-01-24T09:14:46.099Z,1005.92
2019-01-24T09:15:46.090Z,1005.97
2019-01-24T09:16:46.083Z,1006.00
2019-01-24T09:17:46.075Z,1006.05
2019-01-24T09:18:46.082Z,1006.01
2019-01-24T09:19:46.048Z,1006.03
2019-01-24T09:20:46.046Z,1006.04
2019-01-24T09:21:46.026Z,1006.01
2019-01-24T09:22:46.024Z,1006.01
2019-01-24T09:23:46.022Z,1006.08
2019-01-24T09:24:46.002Z,1006.07
2019-01-24T09:25:45.990Z,1006.02
2019-01-24T09:26:45.990Z,1006.08
2019-01-24T09:27:45.965Z,1006.09
2019-01-24T09:28:45.971Z,1006.08
2019-01-24T09:29:45.955Z,1006.06
2019-01-24T09:30:45.936Z,1006.08
2019-01-24T09:31:45.928Z,1006.09
2019-01-24T09:32:45.923Z,1006.13
2019-01-24T09:33:45.924Z,1006.12
2019-01-24T09:34:45.903Z,1006.13
2019-01-24T09:35:45.880Z,1006.15
2019-01-24T09:36:45.869Z,1006.19
2019-01-24T09:37:45.865Z,1006.18
2019-01-24T09:38:45.873Z,1006.17
2019-01-24T09:39:45.842Z,1006.15
2019-01-24T09:40:45.835Z,1006.15
2019-01-24T09:41:45.833Z,1006.14
2019-01-24T09:42:45.807Z,1006.10
2019-01-24T09:43:45.821Z,1006.14
2019-01-24T09:44:45.805Z,1006.13
2019-01-24T09:45:45.777Z,1006.14
2019-01-24T09:46:45.770Z,1006.16
2019-01-24T09:47:45.767Z,1006.12
2019-01-24T09:48:45.766Z,1006.11
2019-01-24T09:49:45.735Z,1006.14
2019-01-24T09:50:45.729Z,1006.16
2019-01-24T09:51:45.717Z,1006.15
2019-01-24T09:52:45.708Z,1006.18
2019-01-24T09:53:45.707Z,1006.15
2019-01-24T09:54:45.690Z,1006.21
2019-01-24T09:55:45.672Z,1006.24
2019-01-24T09:56:45.665Z,1006.18
2019-01-24T09:57:45.650Z,1006.21
2019-01-24T09:58:45.659Z,1006.21
2019-01-24T09:59:45.640Z,1006.24
2019-01-24T10:00:45.626Z,1006.20
2019-01-24T10:01:45.613Z,1006.25
2019-01-24T10:02:45.604Z,1006.18
2019-01-24T10:03:45.609Z,1006.21
2019-01-24T10:04:45.578Z,1006.20
2019-01-24T10:05:45.572Z,1006.23
2019-01-24T10:06:45.562Z,1006.23
2019-01-24T10:07:45.551Z,1006.24
2019-01-24T10:08:45.564Z,1006.26
2019-01-24T10:09:45.524Z,1006.30
2019-01-24T10:10:45.525Z,1006.29
2019-01-24T10:11:45.511Z,1006.30
2019-01-24T10:12:45.499Z,1006.28
2019-01-24T10:13:45.486Z,1006.28
2019-01-24T10:14:45.494Z,1006.31
2019-01-24T10:15:45.466Z,1006.28
2019-01-24T10:16:45.454Z,1006.27
2019-01-24T10:17:45.462Z,1006.27
2019-01-24T10:18:45.437Z,1006.30
2019-01-24T10:19:45.442Z,1006.30
2019-01-24T10:20:45.414Z,1006.30
2019-01-24T10:21:45.422Z,1006.33
2019-01-24T10:22:45.391Z,1006.35
2019-01-24T10:23:45.382Z,1006.34
2019-01-24T10:24:45.388Z,1006.42
2019-01-24T10:25:45.359Z,1006.39
2019-01-24T10:26:45.355Z,1006.42
2019-01-24T10:27:45.339Z,1006.46
2019-01-24T10:28:45.329Z,1006.43
2019-01-24T10:29:45.335Z,1006.37
2019-01-24T10:30:45.314Z,1006.40
2019-01-24T10:31:46.444Z,1006.34
2019-01-24T10:32:45.287Z,1006.34
2019-01-24T10:33:45.287Z,1006.37
2019-01-24T10:34:46.661Z,1006.40
2019-01-24T10:35:45.255Z,1006.37
2019-01-24T10:36:45.263Z,1006.38
2019-01-24T10:37:45.245Z,1006.46
2019-01-24T10:38:45.225Z,1006.40
2019-01-24T10:39:45.231Z,1006.46
2019-01-24T10:40:45.210Z,1006.46
2019-01-24T10:41:45.203Z,1006.45
2019-01-24T10:42:45.185Z,1006.45
2019-01-24T10:43:45.178Z,1006.51
2019-01-24T10:44:45.178Z,1006.45
2019-01-24T10:45:45.152Z,1006.52
2019-01-24T10:46:45.150Z,1006.49
2019-01-24T10:47:45.131Z,1006.50
2019-01-24T10:48:45.122Z,1006.49
2019-01-24T10:49:45.126Z,1006.50
2019-01-24T10:50:45.105Z,1006.48
2019-01-24T10:51:45.098Z,1006.50
2019-01-24T10:52:45.081Z,1006.47
2019-01-24T10:53:45.069Z,1006.47
2019-01-24T10:54:45.077Z,1006.47
2019-01-24T10:55:45.055Z,1006.46
2019-01-24T10:56:45.038Z,1006.46
2019-01-24T10:57:45.029Z,1006.45
2019-01-24T10:58:45.018Z,1006.44
2019-01-24T10:59:45.027Z,1006.44
2019-01-24T11:00:44.996Z,1006.39
2019-01-24T11:01:44.995Z,1006.44
2019-01-24T11:02:44.973Z,1006.42
2019-01-24T11:03:44.965Z,1006.41
2019-01-24T11:04:44.982Z,1006.40
2019-01-24T11:05:44.943Z,1006.39
2019-01-24T11:06:49.974Z,1006.40
2019-01-24T11:07:45.929Z,1006.43
2019-01-24T11:08:44.914Z,1006.45
2019-01-24T11:09:44.919Z,1006.46
2019-01-24T11:10:44.895Z,1006.51
2019-01-24T11:11:44.900Z,1006.48
2019-01-24T11:12:44.873Z,1006.49
2019-01-24T11:13:44.862Z,1006.47
2019-01-24T11:14:44.863Z,1006.45
2019-01-24T11:15:44.838Z,1006.53
2019-01-24T11:16:44.831Z,1006.52
2019-01-24T11:17:44.817Z,1006.50
2019-01-24T11:18:44.824Z,1006.49
2019-01-24T11:19:44.825Z,1006.47
2019-01-24T11:20:44.785Z,1006.43
2019-01-24T11:21:44.786Z,1006.45
2019-01-24T11:22:44.767Z,1006.43
2019-01-24T11:23:44.770Z,1006.44
2019-01-24T11:24:44.761Z,1006.44
2019-01-24T11:25:44.737Z,1006.45
2019-01-24T11:26:44.733Z,1006.47
2019-01-24T11:27:44.722Z,1006.52
2019-01-24T11:28:44.715Z,1006.45
2019-01-24T11:29:44.711Z,1006.46
2019-01-24T11:30:44.682Z,1006.46
2019-01-24T11:31:44.678Z,1006.46
2019-01-24T11:32:44.671Z,1006.43
2019-01-24T11:33:44.656Z,1006.44
2019-01-24T11:34:44.658Z,1006.40
2019-01-24T11:35:44.630Z,1006.42
2019-01-24T11:36:44.619Z,1006.41
2019-01-24T11:37:44.625Z,1006.42
2019-01-24T11:38:44.612Z,1006.41
2019-01-24T11:39:44.614Z,1006.37
2019-01-24T11:40:44.585Z,1006.42
2019-01-24T11:41:44.567Z,1006.48
2019-01-24T11:42:44.606Z,1006.48
2019-01-24T11:43:44.548Z,1006.48
2019-01-24T11:44:44.553Z,1006.50
2019-01-24T11:45:44.532Z,1006.51
2019-01-24T11:46:44.516Z,1006.50
2019-01-24T11:47:44.516Z,1006.51
2019-01-24T11:48:44.493Z,1006.53
2019-01-24T11:49:44.505Z,1006.51
2019-01-24T11:50:44.481Z,1006.51
2019-01-24T11:51:44.462Z,1006.51
2019-01-24T11:52:44.470Z,1006.52
2019-01-24T11:53:44.441Z,1006.56
2019-01-24T11:54:44.448Z,1006.49
2019-01-24T11:55:44.422Z,1006.51
2019-01-24T11:56:44.415Z,1006.57
2019-01-24T11:57:44.419Z,1006.56
2019-01-24T11:58:44.391Z,1006.56
2019-01-24T11:59:44.402Z,1006.60
2019-01-24T12:00:44.369Z,1006.57
2019-01-24T12:01:44.363Z,1006.59
2019-01-24T12:02:44.359Z,1006.59
2019-01-24T12:03:44.342Z,1006.53
2019-01-24T12:04:44.349Z,1006.52
2019-01-24T12:05:44.314Z,1006.49
2019-01-24T12:06:44.306Z,1006.49
2019-01-24T12:07:44.296Z,1006.51
2019-01-24T12:08:44.295Z,1006.53
2019-01-24T12:09:44.300Z,1006.51
2019-01-24T12:10:44.262Z,1006.50
2019-01-24T12:11:44.255Z,1006.53
2019-01-24T12:12:44.244Z,1006.56
2019-01-24T12:13:44.235Z,1006.55
2019-01-24T12:14:44.237Z,1006.52
2019-01-24T12:15:44.228Z,1006.56
2019-01-24T12:16:44.200Z,1006.57
2019-01-24T12:17:44.199Z,1006.55
2019-01-24T12:18:44.179Z,1006.59
2019-01-24T12:19:44.182Z,1006.56
2019-01-24T12:20:44.175Z,1006.58
2019-01-24T12:21:44.164Z,1006.60
2019-01-24T12:22:44.143Z,1006.61
2019-01-24T12:23:44.131Z,1006.59
2019-01-24T12:24:44.120Z,1006.60
2019-01-24T12:25:44.120Z,1006.63
2019-01-24T12:26:44.106Z,1006.62
2019-01-24T12:27:44.085Z,1006.58
2019-01-24T12:28:44.076Z,1006.58
2019-01-24T12:29:44.067Z,1006.54
2019-01-24T12:30:44.083Z,1006.56
2019-01-24T12:31:44.045Z,1006.55
2019-01-24T12:32:44.031Z,1006.56
2019-01-24T12:33:44.036Z,1006.59
2019-01-24T12:34:44.011Z,1006.59
2019-01-24T12:35:44.020Z,1006.60
2019-01-24T12:36:43.992Z,1006.56
2019-01-24T12:37:43.982Z,1006.59
2019-01-24T12:38:43.966Z,1006.58
2019-01-24T12:39:43.971Z,1006.56
2019-01-24T12:40:43.965Z,1006.59
2019-01-24T12:41:43.947Z,1006.56
2019-01-24T12:42:43.924Z,1006.60
2019-01-24T12:43:43.916Z,1006.62
2019-01-24T12:44:43.915Z,1006.56
2019-01-24T12:45:43.910Z,1006.59
2019-01-24T12:46:43.887Z,1006.59
2019-01-24T12:47:43.881Z,1006.60
2019-01-24T12:48:43.866Z,1006.63
2019-01-24T12:49:43.856Z,1006.59
2019-01-24T12:50:43.857Z,1006.61
2019-01-24T12:51:43.840Z,1006.58
2019-01-24T12:52:43.820Z,1006.62
2019-01-24T12:53:43.813Z,1006.64
2019-01-24T12:54:43.799Z,1006.62
2019-01-24T12:55:43.804Z,1006.65
2019-01-24T12:56:43.781Z,1006.60
2019-01-24T12:57:43.772Z,1006.62
2019-01-24T12:58:43.754Z,1006.62
2019-01-24T12:59:43.754Z,1006.66
2019-01-24T13:00:43.754Z,1006.67
2019-01-24T13:01:43.725Z,1006.67
2019-01-24T13:02:43.714Z,1006.65
2019-01-24T13:03:43.705Z,1006.58
2019-01-24T13:04:43.690Z,1006.57
2019-01-24T13:05:43.695Z,1006.56
2019-01-24T13:06:43.679Z,1006.56
2019-01-24T13:07:43.658Z,1006.56
2019-01-24T13:08:43.650Z,1006.52
2019-01-24T13:09:43.645Z,1006.55
2019-01-24T13:10:43.645Z,1006.63
2019-01-24T13:11:43.616Z,1006.60
2019-01-24T13:12:43.604Z,1006.61
2019-01-24T13:13:43.602Z,1006.59
2019-01-24T13:14:43.584Z,1006.60
2019-01-24T13:15:43.592Z,1006.58
2019-01-24T13:16:43.570Z,1006.61
2019-01-24T13:17:43.554Z,1006.58
2019-01-24T13:18:43.540Z,1006.56
2019-01-24T13:19:43.529Z,1006.55
2019-01-24T13:20:43.538Z,1006.46
2019-01-24T13:21:43.515Z,1006.51
2019-01-24T13:22:43.499Z,1006.47
2019-01-24T13:23:43.487Z,1006.46
2019-01-24T13:24:43.481Z,1006.48
2019-01-24T13:25:43.479Z,1006.48
2019-01-24T13:26:43.457Z,1006.51
2019-01-24T13:27:43.441Z,1006.49
2019-01-24T13:28:43.440Z,1006.51
2019-01-24T13:29:43.422Z,1006.45
2019-01-24T13:30:43.428Z,1006.46
2019-01-24T13:31:43.406Z,1006.42
2019-01-24T13:32:43.393Z,1006.41
2019-01-24T13:33:43.384Z,1006.43
2019-01-24T13:34:43.369Z,1006.49
2019-01-24T13:35:43.386Z,1006.53
2019-01-24T13:36:43.348Z,1006.56
2019-01-24T13:37:43.337Z,1006.61
2019-01-24T13:38:43.328Z,1006.60
2019-01-24T13:39:43.334Z,1006.65
2019-01-24T13:40:43.331Z,1006.65
2019-01-24T13:41:43.301Z,1006.66
2019-01-24T13:42:43.282Z,1006.71
2019-01-24T13:43:43.271Z,1006.72
2019-01-24T13:44:43.416Z,1006.78
2019-01-24T13:45:43.263Z,1006.79
2019-01-24T13:46:43.239Z,1006.80
2019-01-24T13:47:43.229Z,1006.77
2019-01-24T13:48:43.216Z,1006.81
2019-01-24T13:49:43.206Z,1006.79
2019-01-24T13:50:43.244Z,1006.82
2019-01-24T13:51:43.199Z,1006.81
2019-01-24T13:52:43.540Z,1006.78
2019-01-24T13:53:43.162Z,1006.76
2019-01-24T13:54:43.275Z,1006.75
2019-01-24T13:55:43.142Z,1006.74
2019-01-24T13:56:43.146Z,1006.71
2019-01-24T13:57:43.124Z,1006.72
2019-01-24T13:58:43.110Z,1006.72
2019-01-24T13:59:43.147Z,1006.71
2019-01-24T14:00:43.131Z,1006.73
2019-01-24T14:01:43.096Z,1006.71
2019-01-24T14:02:43.071Z,1006.74
2019-01-24T14:03:43.062Z,1006.72
2019-01-24T14:04:43.045Z,1006.73
2019-01-24T14:05:43.036Z,1006.74
2019-01-24T14:06:43.064Z,1006.75
2019-01-24T14:07:43.127Z,1006.75
2019-01-24T14:08:43.028Z,1006.80
2019-01-24T14:09:42.997Z,1006.81
2019-01-24T14:10:42.982Z,1006.84
2019-01-24T14:11:42.992Z,1006.85
2019-01-24T14:12:42.971Z,1006.88
2019-01-24T14:13:42.949Z,1006.88
2019-01-24T14:14:42.940Z,1006.86
2019-01-24T14:15:42.940Z,1006.84
2019-01-24T14:16:42.939Z,1006.89
2019-01-24T14:17:42.907Z,1006.92
2019-01-24T14:18:42.897Z,1006.86
2019-01-24T14:19:42.890Z,1006.93
2019-01-24T14:20:42.875Z,1006.91
2019-01-24T14:21:42.885Z,1006.95
2019-01-24T14:22:42.863Z,1006.94
2019-01-24T14:23:42.845Z,1006.89
2019-01-24T14:24:42.842Z,1006.94
2019-01-24T14:25:42.824Z,1006.95
2019-01-24T14:26:42.835Z,1006.96
2019-01-24T14:27:42.817Z,1006.94
2019-01-24T14:28:42.794Z,1006.95
2019-01-24T14:29:42.786Z,1006.98
2019-01-24T14:30:42.771Z,1007.01
2019-01-24T14:31:42.777Z,1006.99
2019-01-24T14:32:42.750Z,1007.02
2019-01-24T14:33:42.745Z,1006.97
2019-01-24T14:34:42.730Z,1006.94
2019-01-24T14:35:42.719Z,1006.95
2019-01-24T14:36:42.733Z,1006.92
2019-01-24T14:37:42.696Z,1006.96
2019-01-24T14:38:42.687Z,1006.91
2019-01-24T14:39:42.678Z,1006.92
2019-01-24T14:40:42.674Z,1006.91
2019-01-24T14:41:42.673Z,1006.88
2019-01-24T14:42:42.645Z,1006.92
2019-01-24T14:43:42.634Z,1006.90
2019-01-24T14:44:42.637Z,1006.93
2019-01-24T14:45:42.616Z,1006.94
2019-01-24T14:46:42.631Z,1006.97
2019-01-24T14:47:42.594Z,1006.91
2019-01-24T14:48:42.583Z,1006.96
2019-01-24T14:49:42.572Z,1006.93
2019-01-24T14:50:42.566Z,1006.99
2019-01-24T14:51:42.578Z,1006.96
2019-01-24T14:52:42.543Z,1006.96
2019-01-24T14:53:42.530Z,1007.01
2019-01-24T14:54:42.529Z,1006.99
2019-01-24T14:55:42.512Z,1007.05
2019-01-24T14:56:42.548Z,1007.06
2019-01-24T14:57:42.493Z,1007.09
2019-01-24T14:58:42.488Z,1007.10
2019-01-24T14:59:42.469Z,1007.05
2019-01-24T15:00:42.502Z,1007.11
2019-01-24T15:01:42.446Z,1007.08
2019-01-24T15:02:42.462Z,1007.10
2019-01-24T15:03:42.428Z,1007.13
2019-01-24T15:04:42.414Z,1007.15
2019-01-24T15:05:42.404Z,1007.16
2019-01-24T15:06:42.395Z,1007.17
2019-01-24T15:07:47.127Z,1007.16
2019-01-24T15:08:43.373Z,1007.14
2019-01-24T15:09:42.366Z,1007.15
2019-01-24T15:10:42.364Z,1007.17
2019-01-24T15:11:42.345Z,1007.17
2019-01-24T15:12:42.351Z,1007.20
2019-01-24T15:13:42.322Z,1007.19
2019-01-24T15:14:42.311Z,1007.26
2019-01-24T15:15:42.300Z,1007.21
2019-01-24T15:16:42.308Z,1007.21
2019-01-24T15:17:42.346Z,1007.24
2019-01-24T15:18:42.270Z,1007.25
2019-01-24T15:19:42.260Z,1007.24
2019-01-24T15:20:42.255Z,1007.24
2019-01-24T15:21:42.240Z,1007.26
2019-01-24T15:22:42.249Z,1007.29
2019-01-24T15:23:42.223Z,1007.25
2019-01-24T15:24:42.206Z,1007.22
2019-01-24T15:25:42.197Z,1007.27
2019-01-24T15:26:42.190Z,1007.30
2019-01-24T15:27:42.192Z,1007.31
2019-01-24T15:28:42.167Z,1007.25
2019-01-24T15:29:42.151Z,1007.25
2019-01-24T15:30:42.152Z,1007.31
2019-01-24T15:31:42.132Z,1007.29
2019-01-24T15:32:42.154Z,1007.33
2019-01-24T15:33:42.110Z,1007.29
2019-01-24T15:34:42.107Z,1007.30
2019-01-24T15:35:42.087Z,1007.33
2019-01-24T15:36:42.079Z,1007.34
2019-01-24T15:37:42.085Z,1007.37
2019-01-24T15:38:42.060Z,1007.40
2019-01-24T15:39:42.049Z,1007.42
2019-01-24T15:40:42.039Z,1007.40
2019-01-24T15:41:42.036Z,1007.41
2019-01-24T15:42:42.034Z,1007.38
2019-01-24T15:43:42.004Z,1007.39
2019-01-24T15:44:41.993Z,1007.49
2019-01-24T15:45:41.985Z,1007.44
2019-01-24T15:46:41.975Z,1007.46
2019-01-24T15:47:41.999Z,1007.49
2019-01-24T15:48:42.846Z,1007.48
2019-01-24T15:49:41.948Z,1007.52
2019-01-24T15:50:41.934Z,1007.49
2019-01-24T15:51:41.926Z,1007.54
2019-01-24T15:52:41.922Z,1007.55
2019-01-24T15:53:41.923Z,1007.56
2019-01-24T15:54:41.889Z,1007.60
2019-01-24T15:55:41.878Z,1007.61
2019-01-24T15:56:41.933Z,1007.59
2019-01-24T15:57:41.863Z,1007.61
2019-01-24T15:58:41.865Z,1007.63
2019-01-24T15:59:41.852Z,1007.66
2019-01-24T16:00:41.838Z,1007.66
2019-01-24T16:01:41.826Z,1007.62
2019-01-24T16:02:41.808Z,1007.58
2019-01-24T16:03:41.811Z,1007.60
2019-01-24T16:04:41.796Z,1007.62
2019-01-24T16:05:41.779Z,1007.61
2019-01-24T16:06:41.763Z,1007.64
2019-01-24T16:07:41.760Z,1007.68
2019-01-24T16:08:41.762Z,1007.69
2019-01-24T16:09:41.738Z,1007.65
2019-01-24T16:10:41.726Z,1007.67
2019-01-24T16:11:41.710Z,1007.67
2019-01-24T16:12:41.700Z,1007.62
2019-01-24T16:13:41.796Z,1007.70
2019-01-24T16:14:41.681Z,1007.71
2019-01-24T16:15:41.667Z,1007.70
2019-01-24T16:16:41.661Z,1007.71
2019-01-24T16:17:41.647Z,1007.71
2019-01-24T16:18:41.667Z,1007.74
2019-01-24T16:19:41.628Z,1007.70
2019-01-24T16:20:41.617Z,1007.79
2019-01-24T16:21:41.615Z,1007.80
2019-01-24T16:22:41.605Z,1007.78
2019-01-24T16:23:41.631Z,1007.84
2019-01-24T16:24:41.575Z,1007.86
2019-01-24T16:25:41.564Z,1007.83
2019-01-24T16:26:41.554Z,1007.85
2019-01-24T16:27:41.546Z,1007.86
2019-01-24T16:28:41.533Z,1007.87
2019-01-24T16:29:41.541Z,1007.86
2019-01-24T16:30:41.526Z,1007.85
2019-01-24T16:31:41.508Z,1007.83
2019-01-24T16:32:41.490Z,1007.79
2019-01-24T16:33:41.487Z,1007.89
2019-01-24T16:34:41.501Z,1007.85
2019-01-24T16:35:41.462Z,1007.90
2019-01-24T16:36:41.451Z,1007.86
2019-01-24T16:37:41.451Z,1007.95
2019-01-24T16:38:41.436Z,1007.94
2019-01-24T16:39:41.433Z,1007.92
2019-01-24T16:40:41.409Z,1007.97
2019-01-24T16:41:41.404Z,1007.94
2019-01-24T16:42:41.390Z,1007.95
2019-01-24T16:43:41.377Z,1008.01
2019-01-24T16:44:41.385Z,1008.00
2019-01-24T16:45:41.363Z,1008.01
2019-01-24T16:46:41.347Z,1008.01
2019-01-24T16:47:41.345Z,1008.00
2019-01-24T16:48:41.322Z,1008.03
2019-01-24T16:49:41.331Z,1007.99
2019-01-24T16:50:41.301Z,1008.00
2019-01-24T16:51:41.291Z,1007.97
2019-01-24T16:52:41.287Z,1008.03
2019-01-24T16:53:41.285Z,1008.04
2019-01-24T16:54:41.284Z,1008.00
2019-01-24T16:55:41.250Z,1008.04
2019-01-24T16:56:41.242Z,1008.04
2019-01-24T16:57:41.238Z,1008.07
2019-01-24T16:58:41.224Z,1008.12
2019-01-24T16:59:41.276Z,1008.08
2019-01-24T17:00:41.203Z,1008.05
2019-01-24T17:01:41.186Z,1008.08
2019-01-24T17:02:41.177Z,1008.06
2019-01-24T17:03:41.175Z,1008.05
2019-01-24T17:04:41.158Z,1008.02
2019-01-24T17:05:41.209Z,1008.00
2019-01-24T17:06:41.135Z,1008.05
2019-01-24T17:07:41.125Z,1008.05
2019-01-24T17:08:41.114Z,1008.04
2019-01-24T17:09:41.114Z,1008.06
2019-01-24T17:10:41.108Z,1008.02
2019-01-24T17:11:41.087Z,1008.08
2019-01-24T17:12:41.083Z,1008.04
2019-01-24T17:13:41.066Z,1008.12
2019-01-24T17:14:41.051Z,1008.06
2019-01-24T17:15:42.195Z,1008.12
2019-01-24T17:16:41.034Z,1008.10
2019-01-24T17:17:41.023Z,1008.10
2019-01-24T17:18:41.028Z,1008.12
2019-01-24T17:19:41.000Z,1008.11
2019-01-24T17:20:41.008Z,1008.13
2019-01-24T17:21:40.984Z,1008.07
2019-01-24T17:22:40.968Z,1008.10
2019-01-24T17:23:40.958Z,1008.10
2019-01-24T17:24:40.957Z,1008.10
2019-01-24T17:25:40.956Z,1008.09
2019-01-24T17:26:40.934Z,1008.11
2019-01-24T17:27:46.100Z,1008.12
2019-01-24T17:28:41.917Z,1008.12
2019-01-24T17:29:40.901Z,1008.11
2019-01-24T17:30:40.907Z,1008.10
2019-01-24T17:31:40.883Z,1008.09
2019-01-24T17:32:40.867Z,1008.12
2019-01-24T17:33:40.855Z,1008.11
2019-01-24T17:34:40.845Z,1008.11
2019-01-24T17:35:40.910Z,1008.09
2019-01-24T17:36:40.855Z,1008.13
2019-01-24T17:37:40.814Z,1008.07
2019-01-24T17:38:40.810Z,1008.10
2019-01-24T17:39:40.811Z,1008.12
2019-01-24T17:40:40.843Z,1008.10
2019-01-24T17:41:40.770Z,1008.11
2019-01-24T17:42:40.764Z,1008.15
2019-01-24T17:43:40.750Z,1008.12
2019-01-24T17:44:40.752Z,1008.16
2019-01-24T17:45:40.771Z,1008.14
2019-01-24T17:46:40.737Z,1008.16
2019-01-24T17:47:40.735Z,1008.12
2019-01-24T17:48:40.697Z,1008.13
2019-01-24T17:49:40.691Z,1008.15
2019-01-24T17:50:40.675Z,1008.17
2019-01-24T17:51:40.681Z,1008.19
2019-01-24T17:52:40.657Z,1008.22
2019-01-24T17:53:40.650Z,1008.16